Time;durP1;ratioP1;P1;durP2;ratioP2;P2;SDS_P1;SDS_P2;PMS_P1;PMS_P2;Temp;Humidity;BMP_temperature;BMP_pressure;BME280_temperature;BME280_humidity;BME280_pressure;Samples;Min_cycle;Max_cycle;Signal;HPM_P1;HPM_P2
2023/05/19 00:01:15;;;;;;;15.10;6.30;;;10.00;99.90;;;;;;5064043;28;20029;-73
2023/05/19 00:03:57;;;;;;;18.85;6.55;;;10.00;99.90;;;;;;5062741;28;20029;-74
2023/05/19 00:06:25;;;;;;;13.77;6.30;;;10.00;99.90;;;;;;5064023;28;20021;-74
2023/05/19 00:08:57;;;;;;;13.73;6.38;;;10.00;99.90;;;;;;5063929;28;20013;-74
2023/05/19 00:11:25;;;;;;;22.42;6.32;;;9.90;99.90;;;;;;5062861;28;20029;-74
2023/05/19 00:13:53;;;;;;;12.15;5.97;;;9.90;99.90;;;;;;5064391;28;20025;-75
2023/05/19 00:16:19;;;;;;;17.48;6.88;;;9.90;99.90;;;;;;5063862;28;20025;-74
2023/05/19 00:18:46;;;;;;;14.27;6.28;;;9.90;99.90;;;;;;5064282;28;20040;-73
2023/05/19 00:21:12;;;;;;;25.58;8.25;;;9.80;99.90;;;;;;5063406;28;20013;-75
2023/05/19 00:23:37;;;;;;;18.80;7.22;;;9.80;99.90;;;;;;5062680;28;20021;-74
2023/05/19 00:26:03;;;;;;;17.42;7.22;;;9.80;99.90;;;;;;5063984;28;20044;-75
2023/05/19 00:28:28;;;;;;;22.77;6.80;;;9.80;99.90;;;;;;5061845;28;20025;-75
2023/05/19 00:30:54;;;;;;;12.35;6.40;;;9.80;99.90;;;;;;5062666;28;20488;-74
2023/05/19 00:33:20;;;;;;;16.30;6.90;;;9.80;99.90;;;;;;5062364;28;20100;-73
2023/05/19 00:35:46;;;;;;;15.50;6.70;;;9.80;99.90;;;;;;5062273;28;20051;-75
2023/05/19 00:38:11;;;;;;;18.65;6.68;;;9.70;99.90;;;;;;5061354;28;20027;-74
2023/05/19 00:40:37;;;;;;;23.48;6.68;;;9.70;99.90;;;;;;5061937;28;20145;-73
2023/05/19 00:43:04;;;;;;;14.68;6.97;;;9.70;99.90;;;;;;5062120;28;20020;-74
2023/05/19 00:45:30;;;;;;;16.15;6.75;;;9.70;99.90;;;;;;5060656;28;20025;-73
2023/05/19 00:47:56;;;;;;;16.48;6.43;;;9.70;99.90;;;;;;5062543;28;20032;-74
2023/05/19 00:50:23;;;;;;;20.27;6.90;;;9.70;99.90;;;;;;5061791;28;20045;-73
2023/05/19 00:52:49;;;;;;;22.25;6.93;;;9.60;99.90;;;;;;5062516;28;20033;-73
2023/05/19 00:55:15;;;;;;;14.48;6.80;;;9.60;99.90;;;;;;5060733;28;20021;-75
2023/05/19 00:57:42;;;;;;;23.65;7.40;;;9.60;99.90;;;;;;5062116;28;20021;-74
2023/05/19 01:00:08;;;;;;;16.48;6.90;;;9.60;99.90;;;;;;5062211;28;20033;-73
2023/05/19 01:02:34;;;;;;;18.13;6.75;;;9.50;99.90;;;;;;5060827;28;20032;-74
2023/05/19 01:05:00;;;;;;;25.05;8.40;;;9.50;99.90;;;;;;5061466;28;20025;-74
2023/05/19 01:07:27;;;;;;;13.63;7.05;;;9.40;99.90;;;;;;5060524;28;20067;-74
2023/05/19 01:09:53;;;;;;;18.15;6.90;;;9.40;99.90;;;;;;5060517;28;20029;-73
2023/05/19 01:12:18;;;;;;;16.60;6.75;;;9.40;99.90;;;;;;5060555;28;20047;-74
2023/05/19 01:14:44;;;;;;;14.00;6.60;;;9.40;99.90;;;;;;5062072;28;20028;-74
2023/05/19 01:17:19;;;;;;;17.58;6.63;;;9.40;99.90;;;;;;5061502;28;20045;-73
2023/05/19 01:20:05;;;;;;;19.20;6.80;;;9.40;99.90;;;;;;5061768;28;20029;-75
2023/05/19 01:22:43;;;;;;;18.88;6.65;;;9.30;99.90;;;;;;5059019;28;20052;-73
2023/05/19 01:25:10;;;;;;;16.60;6.28;;;9.40;99.90;;;;;;5060833;28;20029;-74
2023/05/19 01:28:03;;;;;;;16.92;6.55;;;9.30;99.90;;;;;;5060299;28;20088;-73
2023/05/19 01:30:43;;;;;;;19.52;6.90;;;9.30;99.90;;;;;;5061147;28;20025;-74
2023/05/19 01:33:13;;;;;;;13.80;6.20;;;9.30;99.90;;;;;;5060036;28;20122;-73
2023/05/19 01:35:40;;;;;;;17.30;6.10;;;9.30;99.90;;;;;;5061079;28;20477;-72
2023/05/19 01:38:09;;;;;;;16.52;6.60;;;9.30;99.90;;;;;;5059729;28;20017;-73
2023/05/19 01:40:37;;;;;;;17.45;6.47;;;9.30;99.90;;;;;;5061028;28;20860;-73
2023/05/19 01:43:03;;;;;;;13.82;6.50;;;9.30;99.90;;;;;;5060790;28;20028;-73
2023/05/19 01:45:31;;;;;;;17.38;5.95;;;9.30;99.90;;;;;;5059741;28;20021;-72
2023/05/19 01:47:59;;;;;;;14.75;6.18;;;9.20;99.90;;;;;;5059907;28;20474;-72
2023/05/19 01:50:25;;;;;;;16.65;6.47;;;9.20;99.90;;;;;;5060877;28;20048;-73
2023/05/19 01:52:52;;;;;;;17.23;6.53;;;9.20;99.90;;;;;;5059590;28;20653;-74
2023/05/19 01:55:18;;;;;;;18.85;5.85;;;9.20;99.90;;;;;;5061121;28;20033;-74
2023/05/19 01:58:15;;;;;;;14.07;6.20;;;9.20;99.90;;;;;;5060024;28;20027;-73
2023/05/19 02:01:09;;;;;;;15.23;6.07;;;9.20;99.90;;;;;;5059985;28;20033;-73
2023/05/19 02:03:38;;;;;;;15.25;6.30;;;9.20;99.90;;;;;;5060491;28;20044;-74
2023/05/19 02:06:17;;;;;;;16.55;6.35;;;9.20;99.90;;;;;;5059375;28;20033;-74
2023/05/19 02:08:49;;;;;;;15.60;6.35;;;9.20;99.90;;;;;;5059048;28;20061;-74
2023/05/19 02:11:26;;;;;;;11.70;6.22;;;9.10;99.90;;;;;;5059846;28;20369;-75
2023/05/19 02:13:55;;;;;;;14.57;6.82;;;9.10;99.90;;;;;;5057799;28;20071;-75
2023/05/19 02:16:26;;;;;;;18.48;7.10;;;9.00;99.90;;;;;;5060332;28;20065;-75
2023/05/19 02:18:52;;;;;;;16.23;6.75;;;9.10;99.90;;;;;;5058906;28;20016;-76
2023/05/19 02:21:18;;;;;;;13.57;6.55;;;9.10;99.90;;;;;;5060510;28;20416;-75
2023/05/19 02:23:44;;;;;;;20.35;7.22;;;9.10;99.90;;;;;;5060655;28;20549;-73
2023/05/19 02:26:10;;;;;;;14.75;7.20;;;9.10;99.90;;;;;;5059767;28;20056;-75
2023/05/19 02:28:35;;;;;;;17.15;6.93;;;9.00;99.90;;;;;;5059906;28;20029;-74
2023/05/19 02:31:01;;;;;;;17.98;7.35;;;9.00;99.90;;;;;;5060309;28;20055;-76
2023/05/19 02:33:29;;;;;;;16.85;7.57;;;9.00;99.90;;;;;;5058018;28;20037;-74
2023/05/19 02:35:55;;;;;;;19.85;7.05;;;8.90;99.90;;;;;;5059138;28;20021;-74
2023/05/19 02:38:21;;;;;;;16.75;6.97;;;8.90;99.90;;;;;;5059803;28;20734;-74
2023/05/19 02:40:46;;;;;;;16.92;7.88;;;8.90;99.90;;;;;;5060255;28;20028;-74
2023/05/19 02:43:12;;;;;;;17.38;7.10;;;8.90;99.90;;;;;;5060268;28;20025;-74
2023/05/19 02:45:37;;;;;;;15.75;6.88;;;8.80;99.90;;;;;;5059053;28;20752;-73
2023/05/19 02:48:03;;;;;;;17.70;6.82;;;8.80;99.90;;;;;;5057896;28;20070;-74
2023/05/19 02:50:29;;;;;;;15.60;7.30;;;8.80;99.90;;;;;;5058898;28;20055;-74
2023/05/19 02:52:54;;;;;;;17.75;7.43;;;8.70;99.90;;;;;;5060304;28;20585;-75
2023/05/19 02:55:20;;;;;;;18.98;7.10;;;8.70;99.90;;;;;;5059587;28;20033;-74
2023/05/19 02:57:45;;;;;;;19.77;7.45;;;8.70;99.90;;;;;;5059782;28;20033;-74
2023/05/19 03:00:11;;;;;;;17.70;7.38;;;8.60;99.90;;;;;;5059735;28;20013;-75
2023/05/19 03:02:38;;;;;;;16.13;8.20;;;8.60;99.90;;;;;;5062725;28;20017;-75
2023/05/19 03:05:04;;;;;;;20.65;8.00;;;8.60;99.90;;;;;;5062777;28;20039;-76
2023/05/19 03:07:30;;;;;;;20.55;7.82;;;8.60;99.90;;;;;;5062528;28;20079;-73
2023/05/19 03:09:55;;;;;;;19.98;8.23;;;8.60;99.90;;;;;;5061340;28;20025;-74
2023/05/19 03:12:21;;;;;;;20.63;8.15;;;8.50;99.90;;;;;;5063849;28;20053;-75
2023/05/19 03:14:46;;;;;;;20.92;8.20;;;8.50;99.90;;;;;;5062200;28;20025;-75
2023/05/19 03:17:12;;;;;;;22.70;8.25;;;8.50;99.90;;;;;;5062539;28;20023;-73
2023/05/19 03:19:38;;;;;;;18.02;7.65;;;8.40;99.90;;;;;;5062662;28;20013;-74
2023/05/19 03:22:03;;;;;;;24.30;8.82;;;8.40;99.90;;;;;;5062511;28;20027;-75
2023/05/19 03:24:29;;;;;;;18.00;8.07;;;8.40;99.90;;;;;;5062280;28;20021;-74
2023/05/19 03:26:55;;;;;;;21.77;8.57;;;8.30;99.90;;;;;;5062443;28;20037;-75
2023/05/19 03:29:20;;;;;;;15.80;7.90;;;8.30;99.90;;;;;;5062023;28;20041;-75
2023/05/19 03:31:46;;;;;;;13.90;7.82;;;8.30;99.90;;;;;;5063414;28;20059;-74
2023/05/19 03:34:11;;;;;;;16.60;7.90;;;8.30;99.90;;;;;;5063872;28;20029;-74
2023/05/19 03:36:40;;;;;;;19.98;8.52;;;8.30;99.90;;;;;;5061240;28;20549;-73
2023/05/19 03:39:05;;;;;;;15.52;8.13;;;8.30;99.90;;;;;;5063443;28;20025;-75
2023/05/19 03:41:31;;;;;;;18.48;8.18;;;8.20;99.90;;;;;;5062609;28;20056;-73
2023/05/19 03:43:57;;;;;;;17.02;7.68;;;8.20;99.90;;;;;;5062433;28;20024;-75
2023/05/19 03:46:22;;;;;;;16.08;8.02;;;8.20;99.90;;;;;;5061934;28;20017;-75
2023/05/19 03:48:48;;;;;;;20.58;9.05;;;8.20;99.90;;;;;;5063552;28;20064;-75
2023/05/19 03:51:13;;;;;;;20.77;8.48;;;8.20;99.90;;;;;;5063379;28;20029;-74
2023/05/19 03:53:40;;;;;;;19.30;8.52;;;8.20;99.90;;;;;;5061500;28;20041;-76
2023/05/19 03:56:06;;;;;;;19.70;8.10;;;8.20;99.90;;;;;;5063398;28;20025;-75
2023/05/19 03:58:32;;;;;;;18.98;8.52;;;8.20;99.90;;;;;;5060954;28;20021;-75
2023/05/19 04:00:57;;;;;;;25.30;9.18;;;8.20;99.90;;;;;;5062667;28;20139;-75
2023/05/19 04:03:24;;;;;;;19.55;9.52;;;8.20;99.90;;;;;;5063122;28;20032;-75
2023/05/19 04:05:51;;;;;;;15.60;8.90;;;8.20;99.90;;;;;;5062468;28;20414;-76
2023/05/19 04:08:16;;;;;;;19.83;8.48;;;8.10;99.90;;;;;;5060951;28;20020;-74
2023/05/19 04:10:42;;;;;;;19.65;8.90;;;8.10;99.90;;;;;;5062035;28;20477;-74
2023/05/19 04:13:07;;;;;;;19.65;9.13;;;8.10;99.90;;;;;;5061292;28;20037;-75
2023/05/19 04:15:33;;;;;;;20.38;9.77;;;8.10;99.90;;;;;;5063129;28;20075;-74
2023/05/19 04:17:59;;;;;;;23.60;9.20;;;8.10;99.90;;;;;;5063774;28;20025;-74
2023/05/19 04:20:24;;;;;;;20.80;9.85;;;8.10;99.90;;;;;;5062514;28;20029;-75
2023/05/19 04:22:50;;;;;;;19.65;8.65;;;8.10;99.90;;;;;;5062341;28;20084;-75
2023/05/19 04:25:15;;;;;;;20.35;8.77;;;8.10;99.90;;;;;;5062679;28;20086;-75
2023/05/19 04:27:41;;;;;;;25.02;9.05;;;8.10;99.90;;;;;;5062041;28;20742;-74
2023/05/19 04:30:07;;;;;;;18.05;8.43;;;8.00;99.90;;;;;;5061470;28;20063;-72
2023/05/19 04:32:33;;;;;;;23.80;9.30;;;8.00;99.90;;;;;;5062558;28;20051;-72
2023/05/19 04:34:59;;;;;;;17.63;8.93;;;8.10;99.90;;;;;;5062336;28;20021;-73
2023/05/19 04:37:25;;;;;;;21.38;8.50;;;8.10;99.90;;;;;;5063628;28;20048;-72
2023/05/19 04:39:51;;;;;;;15.45;8.95;;;8.10;99.90;;;;;;5063806;28;20029;-74
2023/05/19 04:42:18;;;;;;;22.80;9.00;;;8.10;99.90;;;;;;5060765;28;20056;-73
2023/05/19 04:44:44;;;;;;;16.05;8.73;;;8.20;99.90;;;;;;5063594;28;20021;-74
2023/05/19 04:47:10;;;;;;;18.63;8.68;;;8.10;99.90;;;;;;5061796;28;20116;-73
2023/05/19 04:49:38;;;;;;;19.75;8.98;;;8.20;99.90;;;;;;5061286;28;20498;-73
2023/05/19 04:52:11;;;;;;;21.65;9.05;;;8.20;99.90;;;;;;5061759;28;20037;-73
2023/05/19 04:54:38;;;;;;;18.98;8.85;;;8.20;99.90;;;;;;5062683;28;20029;-73
2023/05/19 04:57:04;;;;;;;20.90;8.90;;;8.30;99.90;;;;;;5061056;28;20025;-72
2023/05/19 04:59:30;;;;;;;23.63;9.40;;;8.30;99.90;;;;;;5063493;28;20032;-73
2023/05/19 05:01:56;;;;;;;22.25;9.10;;;8.30;99.90;;;;;;5062883;28;20029;-73
2023/05/19 05:04:22;;;;;;;22.23;8.95;;;8.30;99.90;;;;;;5063283;28;20025;-73
2023/05/19 05:06:48;;;;;;;23.42;9.27;;;8.40;99.90;;;;;;5062763;28;20020;-74
2023/05/19 05:09:15;;;;;;;17.50;9.20;;;8.40;99.90;;;;;;5057869;28;20506;-73
2023/05/19 05:11:41;;;;;;;20.30;8.55;;;8.50;99.90;;;;;;5060257;28;20025;-74
2023/05/19 05:14:07;;;;;;;16.35;8.23;;;8.40;99.90;;;;;;5059557;28;20029;-73
2023/05/19 05:16:33;;;;;;;16.63;8.27;;;8.50;99.90;;;;;;5061799;28;20499;-73
2023/05/19 05:18:59;;;;;;;22.98;8.20;;;8.60;99.90;;;;;;5060863;28;20028;-73
2023/05/19 05:21:26;;;;;;;20.02;8.77;;;8.60;99.90;;;;;;5062162;28;20058;-73
2023/05/19 05:23:52;;;;;;;25.58;12.93;;;8.70;99.90;;;;;;5061431;28;20017;-73
2023/05/19 05:26:21;;;;;;;28.98;9.48;;;8.80;99.90;;;;;;5063242;28;20028;-75
2023/05/19 05:28:48;;;;;;;18.35;8.70;;;8.90;99.90;;;;;;5061498;28;20035;-73
2023/05/19 05:31:13;;;;;;;20.98;8.95;;;8.90;99.90;;;;;;5061385;28;20033;-74
2023/05/19 05:33:39;;;;;;;28.05;8.43;;;9.00;99.90;;;;;;5060832;28;20033;-73
2023/05/19 05:36:05;;;;;;;20.35;8.70;;;9.10;99.90;;;;;;5061314;28;20021;-73
2023/05/19 05:38:31;;;;;;;17.13;8.38;;;9.10;99.90;;;;;;5062844;28;20032;-73
2023/05/19 05:40:56;;;;;;;23.92;9.65;;;9.20;99.90;;;;;;5061398;28;20033;-74
2023/05/19 05:43:22;;;;;;;20.25;8.75;;;9.20;99.90;;;;;;5062383;28;20021;-72
2023/05/19 05:45:48;;;;;;;17.67;8.35;;;9.30;99.90;;;;;;5060430;28;20035;-74
2023/05/19 05:48:13;;;;;;;28.40;9.65;;;9.30;99.90;;;;;;5062643;28;20028;-73
2023/05/19 05:50:41;;;;;;;16.83;8.57;;;9.40;99.90;;;;;;5061881;28;20134;-72
2023/05/19 05:53:08;;;;;;;21.77;8.35;;;9.40;99.90;;;;;;5062279;28;20103;-73
2023/05/19 05:55:34;;;;;;;16.50;8.65;;;9.40;99.90;;;;;;5062232;28;20032;-74
2023/05/19 05:58:01;;;;;;;19.30;8.20;;;9.40;99.90;;;;;;5061691;28;20021;-73
2023/05/19 06:00:27;;;;;;;19.40;8.77;;;9.50;99.90;;;;;;5059597;28;20380;-72
2023/05/19 06:02:52;;;;;;;18.42;8.55;;;9.50;99.90;;;;;;5059957;28;20025;-72
2023/05/19 06:05:18;;;;;;;25.02;8.75;;;9.60;99.90;;;;;;5060622;28;20505;-72
2023/05/19 06:07:44;;;;;;;20.23;8.50;;;9.60;99.90;;;;;;5061295;28;20029;-74
2023/05/19 06:10:10;;;;;;;18.85;8.07;;;9.60;99.90;;;;;;5060801;28;20555;-74
2023/05/19 06:12:39;;;;;;;25.67;8.63;;;9.70;99.90;;;;;;5061420;28;20062;-73
2023/05/19 06:15:06;;;;;;;25.00;8.65;;;9.70;99.90;;;;;;5060080;28;20112;-72
2023/05/19 06:17:34;;;;;;;19.25;8.13;;;9.80;99.90;;;;;;5061402;28;20025;-73
2023/05/19 06:19:59;;;;;;;14.55;7.88;;;9.80;99.90;;;;;;5061078;28;20020;-73
2023/05/19 06:22:26;;;;;;;18.77;8.10;;;9.90;99.90;;;;;;5062510;28;20017;-74
2023/05/19 06:24:52;;;;;;;18.40;7.80;;;10.00;99.90;;;;;;5061073;28;20013;-75
2023/05/19 06:27:17;;;;;;;16.23;8.30;;;10.10;99.90;;;;;;5061078;28;20027;-74
2023/05/19 06:29:43;;;;;;;18.92;7.80;;;10.10;99.90;;;;;;5061937;28;20028;-74
2023/05/19 06:32:08;;;;;;;22.95;7.70;;;10.20;99.90;;;;;;5058694;28;20119;-73
2023/05/19 06:34:34;;;;;;;17.20;7.40;;;10.20;99.90;;;;;;5059530;28;20029;-74
2023/05/19 06:37:01;;;;;;;19.35;7.90;;;10.30;99.90;;;;;;5060234;28;20019;-74
2023/05/19 06:39:26;;;;;;;21.80;7.82;;;10.40;99.90;;;;;;5060007;28;20020;-74
2023/05/19 06:41:52;;;;;;;17.48;7.78;;;10.40;99.90;;;;;;5058520;28;20025;-76
2023/05/19 06:44:17;;;;;;;18.50;7.95;;;10.40;99.90;;;;;;5061403;28;20414;-74
2023/05/19 06:46:43;;;;;;;12.85;7.07;;;10.70;99.90;;;;;;5058941;28;20021;-73
2023/05/19 06:49:09;;;;;;;14.90;7.10;;;10.70;99.90;;;;;;5060861;28;20053;-73
2023/05/19 06:51:35;;;;;;;15.68;7.30;;;10.80;99.90;;;;;;5059813;28;20017;-73
2023/05/19 06:54:01;;;;;;;19.95;7.82;;;10.90;99.90;;;;;;5060343;28;20029;-74
2023/05/19 06:56:26;;;;;;;15.07;6.97;;;11.00;99.90;;;;;;5061741;28;20029;-74
2023/05/19 06:58:52;;;;;;;18.80;7.25;;;11.10;99.90;;;;;;5059770;28;20389;-75
2023/05/19 07:01:18;;;;;;;18.73;7.47;;;11.20;99.90;;;;;;5061404;28;20048;-75
2023/05/19 07:03:43;;;;;;;15.50;7.55;;;11.30;99.90;;;;;;5061492;28;20021;-75
2023/05/19 07:06:09;;;;;;;18.75;7.65;;;11.40;99.90;;;;;;5061055;28;20025;-74
2023/05/19 07:08:35;;;;;;;17.58;7.07;;;11.50;99.90;;;;;;5060019;28;20033;-73
2023/05/19 07:11:01;;;;;;;18.13;7.75;;;11.60;99.90;;;;;;5060807;28;20059;-74
2023/05/19 07:13:27;;;;;;;16.17;7.78;;;11.70;99.90;;;;;;5058612;28;20037;-74
2023/05/19 07:15:55;;;;;;;16.23;7.80;;;11.70;99.90;;;;;;5061119;28;20029;-74
2023/05/19 07:18:21;;;;;;;18.30;7.22;;;11.80;99.90;;;;;;5060896;28;20040;-74
2023/05/19 07:20:47;;;;;;;15.98;7.68;;;11.90;99.90;;;;;;5059863;28;20032;-73
2023/05/19 07:23:13;;;;;;;20.67;7.57;;;12.00;99.90;;;;;;5060840;28;20028;-74
2023/05/19 07:25:38;;;;;;;21.52;7.28;;;12.00;99.90;;;;;;5061027;28;20029;-73
2023/05/19 07:28:04;;;;;;;16.50;7.47;;;12.10;99.90;;;;;;5061105;28;20385;-73
2023/05/19 07:30:29;;;;;;;17.13;7.50;;;12.10;99.90;;;;;;5059804;28;20040;-75
2023/05/19 07:32:55;;;;;;;14.40;7.38;;;12.30;99.90;;;;;;5059369;28;20156;-74
2023/05/19 07:35:23;;;;;;;21.83;8.43;;;12.30;99.90;;;;;;5061334;28;20029;-74
2023/05/19 07:37:50;;;;;;;13.05;7.30;;;12.30;99.90;;;;;;5061756;28;20047;-75
2023/05/19 07:40:16;;;;;;;16.42;7.90;;;12.40;99.90;;;;;;5061282;28;20029;-75
2023/05/19 07:42:42;;;;;;;17.23;7.40;;;12.50;99.90;;;;;;5060006;28;20021;-74
2023/05/19 07:45:08;;;;;;;16.70;7.35;;;12.70;99.90;;;;;;5059858;28;20025;-74
2023/05/19 07:47:33;;;;;;;17.35;7.28;;;12.70;99.90;;;;;;5061561;28;20022;-76
2023/05/19 07:49:59;;;;;;;14.57;7.00;;;12.90;99.90;;;;;;5064709;28;20056;-75
2023/05/19 07:52:25;;;;;;;18.25;7.10;;;12.90;99.90;;;;;;5064487;28;20047;-74
2023/05/19 07:54:51;;;;;;;16.73;8.32;;;13.00;99.90;;;;;;5063229;28;20025;-74
2023/05/19 07:57:17;;;;;;;14.57;7.00;;;13.10;99.90;;;;;;5059819;28;20029;-74
2023/05/19 07:59:43;;;;;;;14.13;6.07;;;13.20;99.90;;;;;;5063083;28;20516;-73
2023/05/19 08:02:09;;;;;;;17.90;7.85;;;13.30;99.90;;;;;;5062713;28;20040;-74
2023/05/19 08:04:34;;;;;;;17.27;7.00;;;13.40;99.90;;;;;;5063302;28;20218;-75
2023/05/19 08:07:00;;;;;;;13.18;6.78;;;13.50;99.90;;;;;;5064024;28;20033;-74
2023/05/19 08:09:25;;;;;;;19.73;7.47;;;13.60;99.90;;;;;;5064390;28;20024;-73
2023/05/19 08:11:51;;;;;;;22.52;7.10;;;13.60;99.90;;;;;;5064518;28;20021;-74
2023/05/19 08:14:18;;;;;;;15.10;6.82;;;13.70;99.90;;;;;;5064158;28;20978;-74
2023/05/19 08:16:44;;;;;;;25.90;7.18;;;13.80;99.90;;;;;;5063682;28;20024;-74
2023/05/19 08:19:10;;;;;;;22.50;7.45;;;13.90;99.90;;;;;;5064055;28;20020;-74
2023/05/19 08:21:36;;;;;;;22.65;7.13;;;14.00;99.90;;;;;;5063700;28;20033;-73
2023/05/19 08:24:02;;;;;;;16.58;7.10;;;14.10;99.90;;;;;;5062332;28;20025;-74
2023/05/19 08:26:27;;;;;;;15.27;6.93;;;14.10;99.90;;;;;;5063125;28;20021;-74
2023/05/19 08:28:53;;;;;;;12.68;6.20;;;14.10;99.90;;;;;;5062628;28;20025;-73
2023/05/19 08:31:19;;;;;;;13.40;5.65;;;14.20;99.90;;;;;;5063986;28;20029;-75
2023/05/19 08:33:45;;;;;;;12.93;5.35;;;14.20;99.90;;;;;;5064214;28;20036;-75
2023/05/19 08:36:10;;;;;;;33.33;7.10;;;14.40;99.90;;;;;;5063742;28;20096;-74
2023/05/19 08:38:39;;;;;;;14.52;5.57;;;14.50;99.90;;;;;;5063820;28;20021;-73
2023/05/19 08:41:05;;;;;;;17.23;5.05;;;14.60;99.90;;;;;;5062300;28;20025;-71
2023/05/19 08:43:30;;;;;;;9.15;4.13;;;14.60;99.90;;;;;;5062403;28;20029;-75
2023/05/19 08:45:58;;;;;;;12.13;4.95;;;14.90;99.90;;;;;;5063576;28;20073;-72
2023/05/19 08:48:27;;;;;;;11.40;4.85;;;15.00;99.90;;;;;;5062056;28;20024;-73
2023/05/19 08:51:27;;;;;;;11.02;4.55;;;15.00;99.90;;;;;;5063303;28;20241;-71
2023/05/19 08:53:59;;;;;;;13.55;4.53;;;15.30;99.90;;;;;;5063224;28;20093;-71
2023/05/19 08:56:25;;;;;;;13.43;4.45;;;15.60;99.90;;;;;;5061973;28;20029;-72
2023/05/19 08:58:51;;;;;;;12.30;4.82;;;15.70;99.90;;;;;;5061832;28;20017;-72
2023/05/19 09:01:19;;;;;;;13.23;4.30;;;15.90;99.90;;;;;;5062946;28;20017;-71
2023/05/19 09:03:48;;;;;;;8.90;4.03;;;16.00;99.90;;;;;;5063502;28;20018;-70
2023/05/19 09:06:14;;;;;;;10.93;3.92;;;16.10;99.90;;;;;;5062823;28;20017;-71
2023/05/19 09:08:41;;;;;;;11.98;3.90;;;16.20;99.90;;;;;;5061758;28;20107;-71
2023/05/19 09:11:08;;;;;;;12.20;3.53;;;16.20;99.90;;;;;;5061524;28;20025;-72
2023/05/19 09:13:34;;;;;;;17.38;3.80;;;16.30;99.90;;;;;;5063126;28;20037;-67
2023/05/19 09:15:59;;;;;;;13.40;3.70;;;16.40;99.90;;;;;;5062965;28;20056;-71
2023/05/19 09:18:25;;;;;;;8.35;3.40;;;16.40;99.90;;;;;;5062762;28;20024;-74
2023/05/19 09:21:01;;;;;;;15.45;3.13;;;16.50;99.90;;;;;;5061293;28;20025;-71
2023/05/19 09:23:32;;;;;;;8.73;3.20;;;16.50;99.90;;;;;;5063353;28;20440;-73
2023/05/19 09:26:02;;;;;;;11.27;3.03;;;16.60;99.90;;;;;;5060820;28;20094;-73
2023/05/19 09:28:33;;;;;;;6.57;2.70;;;16.70;99.90;;;;;;5062510;28;20044;-72
2023/05/19 09:31:01;;;;;;;9.02;2.50;;;16.80;99.90;;;;;;5061245;28;20025;-72
2023/05/19 09:33:27;;;;;;;9.57;3.42;;;16.80;99.90;;;;;;5061032;28;20040;-71
2023/05/19 09:35:56;;;;;;;9.20;2.83;;;16.90;99.90;;;;;;5061049;28;20027;-73
2023/05/19 09:38:25;;;;;;;6.10;2.00;;;17.00;99.90;;;;;;5062472;28;20028;-71
2023/05/19 09:40:52;;;;;;;12.43;1.80;;;17.10;99.90;;;;;;5061399;28;20036;-74
2023/05/19 09:43:18;;;;;;;10.57;2.58;;;17.10;99.90;;;;;;5062823;28;20021;-73
2023/05/19 09:45:44;;;;;;;10.15;2.22;;;17.20;99.90;;;;;;5062537;28;20088;-73
2023/05/19 09:48:09;;;;;;;7.78;1.85;;;17.20;99.90;;;;;;5061002;28;20028;-74
2023/05/19 09:50:36;;;;;;;7.18;1.95;;;17.30;99.90;;;;;;5062553;28;20049;-73
2023/05/19 09:53:03;;;;;;;7.90;2.03;;;17.40;99.90;;;;;;5060218;28;20044;-74
2023/05/19 09:55:28;;;;;;;5.47;2.10;;;17.30;99.90;;;;;;5061945;28;20029;-73
2023/05/19 09:57:55;;;;;;;7.18;2.10;;;17.40;99.90;;;;;;5061803;28;20083;-72
2023/05/19 10:00:22;;;;;;;7.65;2.10;;;17.50;99.90;;;;;;5062123;28;20428;-74
2023/05/19 10:02:49;;;;;;;9.00;2.30;;;17.70;99.90;;;;;;5060978;28;20458;-73
2023/05/19 10:05:18;;;;;;;9.20;2.17;;;17.90;99.90;;;;;;5062576;28;20032;-74
2023/05/19 10:07:54;;;;;;;10.50;1.90;;;18.10;99.90;;;;;;5059756;28;20028;-71
2023/05/19 10:10:21;;;;;;;6.70;1.92;;;18.20;99.90;;;;;;5059948;28;20041;-73
2023/05/19 10:12:47;;;;;;;8.25;2.33;;;18.20;99.90;;;;;;5059707;28;20041;-76
2023/05/19 10:15:14;;;;;;;11.68;2.25;;;18.10;99.90;;;;;;5062054;28;20039;-72
2023/05/19 10:17:42;;;;;;;9.18;2.30;;;17.90;99.90;;;;;;5060294;28;20045;-72
2023/05/19 10:20:13;;;;;;;6.80;2.28;;;17.80;99.90;;;;;;5060930;28;20017;-73
2023/05/19 10:22:45;;;;;;;8.93;2.30;;;17.80;99.90;;;;;;5060391;28;20033;-72
2023/05/19 10:25:15;;;;;;;4.97;1.83;;;17.90;99.90;;;;;;5060926;28;20476;-73
2023/05/19 10:27:53;;;;;;;7.65;2.40;;;17.90;99.90;;;;;;5061490;28;20017;-73
2023/05/19 10:30:40;;;;;;;11.68;2.78;;;17.80;99.90;;;;;;5062243;28;21323;-70
2023/05/19 10:33:10;;;;;;;12.48;2.35;;;17.70;99.90;;;;;;5060101;28;20037;-73
2023/05/19 10:35:38;;;;;;;6.85;1.88;;;17.80;99.90;;;;;;5061178;28;20017;-73
2023/05/19 10:38:19;;;;;;;8.35;2.35;;;18.00;99.90;;;;;;5057687;28;20060;-75
2023/05/19 10:41:01;;;;;;;10.25;2.55;;;18.10;99.90;;;;;;5060281;28;20064;-72
2023/05/19 10:43:38;;;;;;;9.40;2.70;;;18.30;99.90;;;;;;5060464;28;20041;-75
2023/05/19 10:46:05;;;;;;;6.55;2.55;;;18.40;99.90;;;;;;5054590;28;20021;-74
2023/05/19 10:48:35;;;;;;;9.95;2.45;;;18.60;99.90;;;;;;5053804;28;20052;-73
2023/05/19 10:51:01;;;;;;;9.18;2.50;;;18.70;99.90;;;;;;5057248;28;20044;-73
2023/05/19 10:53:32;;;;;;;8.45;2.08;;;18.90;99.90;;;;;;5058199;28;20037;-71
2023/05/19 10:56:01;;;;;;;6.80;2.40;;;19.10;99.90;;;;;;5058684;28;20071;-73
2023/05/19 10:58:48;;;;;;;7.45;2.35;;;19.30;99.90;;;;;;5058871;28;20018;-74
2023/05/19 11:01:18;;;;;;;9.27;2.80;;;19.30;99.90;;;;;;5058306;28;20033;-73
2023/05/19 11:03:50;;;;;;;7.22;2.30;;;19.20;99.90;;;;;;5059861;28;20036;-73
2023/05/19 11:06:30;;;;;;;6.72;2.70;;;19.10;99.90;;;;;;5060080;28;20033;-73
2023/05/19 11:09:13;;;;;;;7.90;2.50;;;19.20;99.90;;;;;;5061280;28;20041;-74
2023/05/19 11:11:52;;;;;;;9.23;2.50;;;19.30;99.90;;;;;;5059106;28;20021;-72
2023/05/19 11:14:21;;;;;;;5.97;2.40;;;19.40;99.90;;;;;;5061488;28;20123;-73
2023/05/19 11:16:49;;;;;;;7.72;2.22;;;19.30;99.90;;;;;;5059191;28;20028;-74
2023/05/19 11:19:40;;;;;;;8.40;2.60;;;19.20;99.90;;;;;;5060891;28;20835;-71
2023/05/19 11:22:11;;;;;;;9.05;2.30;;;19.10;99.90;;;;;;5061296;28;20037;-72
2023/05/19 11:24:36;;;;;;;13.73;2.65;;;19.00;99.90;;;;;;5064391;28;20535;-73
2023/05/19 11:27:23;;;;;;;11.32;2.70;;;19.10;99.90;;;;;;5063372;28;20021;-74
2023/05/19 11:29:50;;;;;;;4.47;2.10;;;19.40;99.90;;;;;;5064098;28;20021;-75
2023/05/19 11:32:16;;;;;;;8.88;2.20;;;19.40;99.90;;;;;;5063828;28;20520;-73
2023/05/19 11:34:43;;;;;;;6.93;2.40;;;19.30;99.90;;;;;;5065169;28;20021;-74
2023/05/19 11:37:10;;;;;;;7.57;2.13;;;19.10;99.90;;;;;;5064639;28;20028;-72
2023/05/19 11:39:36;;;;;;;8.07;2.20;;;18.90;99.90;;;;;;5064355;28;20033;-75
2023/05/19 11:42:01;;;;;;;7.53;1.95;;;18.80;99.90;;;;;;5065213;28;20033;-70
2023/05/19 11:44:27;;;;;;;7.50;2.05;;;18.80;99.90;;;;;;5063580;28;20060;-73
2023/05/19 11:46:53;;;;;;;6.90;2.13;;;18.90;99.90;;;;;;5061810;28;20073;-74
2023/05/19 11:49:18;;;;;;;6.70;2.17;;;18.90;99.90;;;;;;5062535;28;20482;-77
2023/05/19 11:51:44;;;;;;;6.32;2.10;;;18.90;99.90;;;;;;5065052;28;20124;-72
2023/05/19 11:54:11;;;;;;;7.28;2.38;;;19.00;99.90;;;;;;5064167;28;20115;-74
2023/05/19 11:56:41;;;;;;;13.68;4.78;;;19.10;99.90;;;;;;5063587;28;20056;-73
2023/05/19 11:59:07;;;;;;;9.23;2.50;;;19.20;99.90;;;;;;5061817;28;20047;-72
2023/05/19 12:01:33;;;;;;;11.25;2.67;;;19.10;99.90;;;;;;5062745;28;20025;-73
2023/05/19 12:03:59;;;;;;;10.60;2.67;;;19.00;99.90;;;;;;5063268;28;20021;-73
2023/05/19 12:06:26;;;;;;;11.50;3.53;;;19.10;99.90;;;;;;5064013;28;20043;-73
2023/05/19 12:08:53;;;;;;;10.88;3.00;;;19.00;99.90;;;;;;5064033;28;20037;-73
2023/05/19 12:11:19;;;;;;;10.23;2.72;;;18.80;99.90;;;;;;5064051;28;20024;-72
2023/05/19 12:13:46;;;;;;;7.32;2.05;;;18.70;99.90;;;;;;5064058;28;20037;-72
2023/05/19 12:16:12;;;;;;;6.18;2.40;;;18.60;99.90;;;;;;5061785;28;20037;-72
2023/05/19 12:18:38;;;;;;;4.53;2.03;;;18.80;99.90;;;;;;5061861;28;20062;-72
2023/05/19 12:21:04;;;;;;;7.95;2.17;;;19.10;99.90;;;;;;5063577;28;20017;-73
2023/05/19 12:23:31;;;;;;;13.23;3.60;;;19.30;99.90;;;;;;5064340;28;20032;-73
2023/05/19 12:25:58;;;;;;;7.63;2.22;;;19.30;99.90;;;;;;5063073;28;20025;-73
2023/05/19 12:28:24;;;;;;;8.60;2.35;;;19.40;99.90;;;;;;5063658;28;20025;-74
2023/05/19 12:30:51;;;;;;;5.40;1.85;;;19.60;99.90;;;;;;5063994;28;20549;-72
2023/05/19 12:33:21;;;;;;;9.20;2.10;;;19.50;99.90;;;;;;5060487;28;20036;-76
2023/05/19 12:35:48;;;;;;;5.18;2.05;;;19.50;99.90;;;;;;5062515;28;20024;-74
2023/05/19 12:38:14;;;;;;;6.30;1.95;;;19.60;99.90;;;;;;5063647;28;20040;-74
2023/05/19 12:40:41;;;;;;;5.28;2.03;;;19.80;99.90;;;;;;5062303;28;20021;-72
2023/05/19 12:43:08;;;;;;;7.28;1.83;;;20.20;99.90;;;;;;5063687;28;20025;-74
2023/05/19 12:45:41;;;;;;;9.68;2.28;;;20.50;99.90;;;;;;5062137;28;20071;-74